Time;durP1;ratioP1;P1;durP2;ratioP2;P2;SDS_P1;SDS_P2;PMS_P1;PMS_P2;Temp;Humidity;BMP_temperature;BMP_pressure;BME280_temperature;BME280_humidity;BME280_pressure;Samples;Min_cycle;Max_cycle;Signal;HPM_P1;HPM_P2
2021/12/02 00:01:05;;;;;;;16.40;9.43;;;-2.30;99.90;;;-2.20;98.58;97134.31;5069217;27;119609;-81
2021/12/02 00:03:35;;;;;;;20.00;10.38;;;-2.20;99.90;;;-2.21;98.56;97124.75;5067564;27;117972;-80
2021/12/02 00:06:22;;;;;;;20.92;9.50;;;-2.30;99.90;;;-2.14;98.52;97126.25;5064446;27;129515;-81
2021/12/02 00:08:53;;;;;;;17.48;9.13;;;-2.20;99.90;;;-2.13;99.22;97112.69;5050011;27;129659;-82
2021/12/02 00:11:23;;;;;;;18.88;9.02;;;-2.20;99.90;;;-2.19;99.13;97109.28;5033845;27;120062;-81
2021/12/02 00:14:11;;;;;;;21.90;10.48;;;-2.20;99.90;;;-2.23;99.37;97102.19;5070777;27;119694;-80
2021/12/02 00:16:51;;;;;;;18.73;9.82;;;-2.40;99.90;;;-2.07;98.84;97086.81;5068715;27;129621;-80
2021/12/02 00:22:06;;;;;;;21.17;10.45;;;-2.20;99.90;;;-2.32;100.00;97072.81;5053146;27;119845;-81
2021/12/02 00:24:37;;;;;;;22.27;9.90;;;-2.20;99.90;;;-2.36;100.00;97063.84;5076669;27;119305;-83
2021/12/02 00:27:12;;;;;;;22.05;10.02;;;-2.20;99.90;;;-2.36;100.00;97048.69;5083128;27;129745;-82
2021/12/02 00:29:46;;;;;;;22.38;10.48;;;-2.20;99.90;;;-2.19;100.00;97055.38;5084899;27;129080;-83
2021/12/02 00:32:14;;;;;;;19.55;9.88;;;-2.20;99.90;;;-2.21;100.00;97045.03;5067526;27;121764;-84
2021/12/02 00:34:46;;;;;;;20.33;10.07;;;-2.20;99.90;;;-2.24;100.00;97045.59;5076259;27;120773;-85
2021/12/02 00:37:15;;;;;;;21.80;9.13;;;-2.30;99.90;;;-2.11;100.00;97040.66;5088040;27;129889;-83
2021/12/02 00:39:44;;;;;;;23.10;10.70;;;-2.20;99.90;;;-2.16;100.00;97044.16;5093375;27;129814;-84
2021/12/02 00:42:16;;;;;;;21.40;11.00;;;-2.30;99.90;;;-2.10;100.00;97043.00;5053697;27;117701;-83
2021/12/02 00:44:46;;;;;;;24.23;10.00;;;-2.20;99.90;;;-2.09;100.00;97054.41;5067951;27;119561;-83
2021/12/02 00:47:16;;;;;;;21.92;11.02;;;-2.20;99.90;;;-2.04;100.00;97035.72;5053658;27;129152;-83
2021/12/02 00:49:48;;;;;;;21.88;10.90;;;-2.20;99.90;;;-2.12;100.00;97034.53;5051932;27;128696;-84
2021/12/02 00:52:37;;;;;;;23.63;10.93;;;-2.20;99.90;;;-2.11;100.00;97022.03;5066419;27;119372;-84
2021/12/02 00:55:06;;;;;;;19.60;10.52;;;-2.20;99.90;;;-2.11;100.00;97014.06;5070180;27;119384;-84
2021/12/02 00:57:41;;;;;;;24.83;13.30;;;-2.10;99.90;;;-2.12;100.00;97010.63;5063537;27;129728;-84
2021/12/02 01:00:12;;;;;;;23.85;11.35;;;-2.20;99.90;;;-2.16;100.00;97012.28;5046646;27;130137;-83
2021/12/02 01:02:43;;;;;;;24.38;11.63;;;-2.10;99.90;;;-2.12;100.00;97007.16;5050413;27;119028;-84
2021/12/02 01:05:12;;;;;;;22.58;12.10;;;-2.10;99.90;;;-2.12;100.00;96991.22;5065372;27;119570;-83
2021/12/02 01:07:43;;;;;;;23.27;11.65;;;-2.10;99.90;;;-2.06;100.00;96984.75;5062529;27;129408;-83
2021/12/02 01:10:12;;;;;;;23.10;11.43;;;-2.10;99.90;;;-2.02;100.00;96980.44;5054607;27;129556;-82
2021/12/02 01:12:42;;;;;;;25.98;11.95;;;-2.10;99.90;;;-2.12;100.00;96980.59;5040325;27;120467;-82
2021/12/02 01:15:11;;;;;;;19.75;10.52;;;-2.00;99.90;;;-2.15;100.00;96967.88;5073062;27;119875;-83
2021/12/02 01:17:39;;;;;;;25.02;12.38;;;-2.10;99.90;;;-1.98;100.00;96960.16;5068916;27;130146;-83
2021/12/02 01:20:10;;;;;;;24.55;11.77;;;-2.10;99.90;;;-2.06;100.00;96955.50;5076318;27;129676;-82
2021/12/02 01:22:40;;;;;;;26.30;11.98;;;-2.00;99.90;;;-1.91;100.00;96951.81;5059499;27;121324;-82
2021/12/02 01:25:09;;;;;;;25.38;11.68;;;-2.00;99.90;;;-1.79;100.00;96951.31;5061718;27;121408;-81
2021/12/02 01:27:41;;;;;;;23.13;12.07;;;-2.00;99.90;;;-1.87;100.00;96950.94;5060121;27;130119;-82
2021/12/02 01:30:11;;;;;;;26.50;13.15;;;-1.90;99.90;;;-1.84;100.00;96939.72;5052391;27;130215;-82
2021/12/02 01:32:41;;;;;;;25.02;12.10;;;-1.90;99.90;;;-1.84;100.00;96929.09;5075224;27;119088;-82
2021/12/02 01:35:10;;;;;;;22.90;11.63;;;-1.90;99.90;;;-1.73;100.00;96928.88;5068343;27;119203;-82
2021/12/02 01:37:40;;;;;;;27.13;13.02;;;-1.90;99.90;;;-1.76;100.00;96924.97;5036085;27;129878;-82
2021/12/02 01:40:13;;;;;;;24.27;12.73;;;-1.90;99.90;;;-1.96;100.00;96915.47;5043897;27;129261;-82
2021/12/02 01:42:51;;;;;;;25.90;11.93;;;-1.90;99.90;;;-1.96;100.00;96912.00;5069102;27;119700;-82
2021/12/02 01:45:24;;;;;;;23.95;12.10;;;-1.90;99.90;;;-1.92;100.00;96903.16;5082455;27;119721;-81
2021/12/02 01:47:55;;;;;;;24.05;11.82;;;-1.90;99.90;;;-1.90;100.00;96890.38;5066489;27;128918;-81
2021/12/02 01:50:27;;;;;;;26.00;12.25;;;-1.90;99.90;;;-1.91;100.00;96885.34;5047100;27;128726;-81
2021/12/02 01:52:58;;;;;;;24.27;12.00;;;-1.80;99.90;;;-1.93;100.00;96892.81;5071735;27;119356;-79
2021/12/02 01:55:29;;;;;;;23.13;12.02;;;-1.90;99.90;;;-1.95;100.00;96889.66;5056231;27;119362;-79
2021/12/02 01:58:03;;;;;;;26.05;13.25;;;-1.90;99.90;;;-2.07;100.00;96876.84;5077325;27;129991;-80
2021/12/02 02:00:41;;;;;;;25.17;13.15;;;-1.90;99.90;;;-1.85;100.00;96868.22;5073402;27;129876;-80
2021/12/02 02:03:12;;;;;;;26.83;12.13;;;-1.90;99.90;;;-1.75;100.00;96870.66;5075902;27;120508;-80
2021/12/02 02:05:41;;;;;;;28.13;12.57;;;-1.80;99.90;;;-1.75;100.00;96861.91;5081859;27;119372;-81
2021/12/02 02:08:16;;;;;;;24.38;13.52;;;-1.80;99.90;;;-1.78;100.00;96857.19;5065762;27;129683;-80
2021/12/02 02:10:46;;;;;;;27.05;12.48;;;-1.80;99.90;;;-1.69;100.00;96855.41;5074068;27;130268;-79
2021/12/02 02:13:19;;;;;;;25.25;12.05;;;-1.80;99.90;;;-1.59;100.00;96860.56;5033837;27;121158;-81
2021/12/02 02:16:02;;;;;;;25.90;11.98;;;-1.80;99.90;;;-1.58;100.00;96848.81;5079113;27;121831;-80
2021/12/02 02:18:31;;;;;;;25.52;12.90;;;-1.70;99.90;;;-1.68;100.00;96849.03;5065258;27;129529;-80
2021/12/02 02:21:02;;;;;;;29.00;13.00;;;-1.80;99.90;;;-1.71;100.00;96852.28;5074573;27;129724;-79
2021/12/02 02:23:50;;;;;;;28.35;13.48;;;-1.80;99.90;;;-1.83;100.00;96840.25;5068107;27;119412;-78
2021/12/02 02:26:25;;;;;;;25.05;13.15;;;-1.70;99.90;;;-1.63;100.00;96840.94;5053258;27;119117;-81
2021/12/02 02:28:55;;;;;;;27.15;13.80;;;-1.70;99.90;;;-1.59;100.00;96833.94;5080386;27;129740;-79
2021/12/02 02:31:24;;;;;;;26.77;13.07;;;-1.70;99.90;;;-1.74;100.00;96828.94;5066695;27;129631;-81
2021/12/02 02:33:53;;;;;;;29.02;12.73;;;-1.70;99.90;;;-1.66;100.00;96825.56;5069942;27;118978;-79
2021/12/02 02:36:26;;;;;;;25.38;13.13;;;-1.70;99.90;;;-1.67;100.00;96816.00;5062037;27;118639;-79
2021/12/02 02:38:56;;;;;;;24.27;12.77;;;-1.70;99.90;;;-1.85;100.00;96810.50;5072671;27;129950;-79
2021/12/02 02:41:28;;;;;;;24.17;11.82;;;-1.70;99.90;;;-1.83;100.00;96795.03;5057952;27;129426;-80
2021/12/02 02:44:00;;;;;;;22.52;11.90;;;-1.70;99.90;;;-1.75;100.00;96792.78;5053552;27;119739;-79
2021/12/02 02:46:32;;;;;;;27.25;12.98;;;-1.70;99.90;;;-1.75;100.00;96784.81;5054970;27;119077;-78
2021/12/02 02:49:04;;;;;;;21.80;12.05;;;-1.60;99.90;;;-1.69;100.00;96771.09;5079177;27;130625;-78
2021/12/02 02:51:40;;;;;;;23.58;11.40;;;-1.60;99.90;;;-1.81;100.00;96774.28;5077656;27;130322;-77
2021/12/02 02:54:12;;;;;;;21.73;11.32;;;-1.60;99.90;;;-1.75;100.00;96779.50;5058071;27;118998;-77
2021/12/02 02:56:48;;;;;;;20.60;10.40;;;-1.70;99.90;;;-1.73;100.00;96764.00;5070796;27;120327;-77
2021/12/02 02:59:27;;;;;;;22.43;11.87;;;-1.60;99.90;;;-1.65;100.00;96766.00;5066614;27;129834;-76
2021/12/02 03:02:06;;;;;;;21.98;10.93;;;-1.70;99.90;;;-1.81;100.00;96747.69;5058028;27;129265;-77
2021/12/02 03:04:42;;;;;;;21.27;11.38;;;-1.60;99.90;;;-1.72;100.00;96745.09;5063598;27;121970;-78
2021/12/02 03:07:21;;;;;;;22.40;10.93;;;-1.60;99.90;;;-1.58;100.00;96744.28;5074912;27;121887;-78
2021/12/02 03:09:57;;;;;;;21.77;11.50;;;-1.60;99.90;;;-1.75;100.00;96736.94;5073892;27;129743;-82
2021/12/02 03:12:31;;;;;;;21.13;10.73;;;-1.60;99.90;;;-1.73;100.00;96732.09;5051132;27;129264;-81
2021/12/02 03:17:46;;;;;;;20.08;11.38;;;-1.60;99.90;;;-1.53;100.00;96730.88;5057135;27;119094;-81
2021/12/02 03:20:15;;;;;;;23.13;11.23;;;-1.60;99.90;;;-1.60;100.00;96730.53;5058650;27;129768;-80
2021/12/02 03:22:45;;;;;;;22.55;10.68;;;-1.50;99.90;;;-1.52;100.00;96722.59;5088706;27;130956;-78
2021/12/02 03:25:15;;;;;;;20.35;10.70;;;-1.50;99.90;;;-1.38;100.00;96719.13;5062200;27;118410;-78
2021/12/02 03:27:43;;;;;;;22.13;11.70;;;-1.50;99.90;;;-1.40;100.00;96729.25;5060031;27;119990;-79
2021/12/02 03:30:12;;;;;;;23.83;10.50;;;-1.50;99.90;;;-1.36;100.00;96723.03;5051536;27;128911;-78
2021/12/02 03:32:41;;;;;;;21.92;11.00;;;-1.50;99.90;;;-1.49;100.00;96715.91;5085355;27;129784;-79
2021/12/02 03:35:10;;;;;;;22.73;10.95;;;-1.40;99.90;;;-1.54;100.00;96714.13;5084080;27;119551;-79
2021/12/02 03:37:40;;;;;;;22.48;11.00;;;-1.50;99.90;;;-1.38;100.00;96705.81;5078063;27;118976;-80
2021/12/02 03:40:12;;;;;;;21.40;11.20;;;-1.40;99.90;;;-1.35;100.00;96708.66;5069778;27;129835;-81
2021/12/02 03:42:51;;;;;;;22.70;11.40;;;-1.40;99.90;;;-1.32;100.00;96710.72;5077024;27;129640;-76
2021/12/02 03:45:23;;;;;;;23.55;12.02;;;-1.40;99.90;;;-1.24;100.00;96690.56;5058866;27;119177;-77
2021/12/02 03:47:54;;;;;;;25.33;11.45;;;-1.40;99.90;;;-1.27;100.00;96696.50;5078965;27;119485;-76
2021/12/02 03:50:22;;;;;;;22.92;12.15;;;-1.40;99.90;;;-1.20;100.00;96683.56;5044074;27;129769;-77
2021/12/02 03:52:51;;;;;;;21.27;10.98;;;-1.30;99.90;;;-1.20;100.00;96685.41;5085040;27;129794;-76
2021/12/02 03:55:21;;;;;;;20.90;10.93;;;-1.30;99.90;;;-1.24;100.00;96677.25;5075208;27;122110;-76
2021/12/02 03:57:50;;;;;;;22.92;12.20;;;-1.30;99.90;;;-1.30;100.00;96673.16;5059267;27;121963;-76
2021/12/02 04:00:18;;;;;;;19.77;11.48;;;-1.20;99.90;;;-1.31;100.00;96679.56;5075443;27;130442;-76
2021/12/02 04:02:47;;;;;;;21.23;11.52;;;-1.20;99.90;;;-1.15;100.00;96667.47;5068921;27;128769;-76
2021/12/02 04:05:16;;;;;;;19.25;10.77;;;-1.20;99.90;;;-1.21;100.00;96658.03;5077131;27;120090;-75
2021/12/02 04:07:44;;;;;;;21.45;11.32;;;-1.20;99.90;;;-1.21;100.00;96662.56;5080902;27;119040;-74
2021/12/02 04:10:14;;;;;;;19.13;10.70;;;-1.20;99.90;;;-1.12;100.00;96658.88;5080461;27;130118;-74
2021/12/02 04:12:49;;;;;;;22.65;11.43;;;-1.10;99.90;;;-1.14;100.00;96650.41;5068193;27;128775;-75
2021/12/02 04:15:23;;;;;;;21.50;11.25;;;-1.10;99.90;;;-1.14;100.00;96650.41;5066765;27;119998;-74
2021/12/02 04:17:52;;;;;;;19.70;11.35;;;-1.10;99.90;;;-0.94;100.00;96646.41;5066519;27;119605;-74
2021/12/02 04:20:24;;;;;;;21.02;11.40;;;-1.00;99.90;;;-0.92;100.00;96646.13;5074715;27;130192;-75
2021/12/02 04:22:56;;;;;;;17.83;11.23;;;-1.00;99.90;;;-1.03;100.00;96642.16;5060722;27;129030;-74
2021/12/02 04:25:27;;;;;;;20.13;11.82;;;-1.00;99.90;;;-0.98;100.00;96628.69;5075849;27;120230;-75
2021/12/02 04:27:57;;;;;;;23.50;11.52;;;-1.00;99.90;;;-0.81;100.00;96634.13;5052033;27;118735;-74
2021/12/02 04:30:28;;;;;;;21.02;11.82;;;-0.90;99.90;;;-0.73;100.00;96641.34;5063376;27;128906;-75
2021/12/02 04:32:59;;;;;;;21.48;11.25;;;-0.90;99.90;;;-0.77;100.00;96635.06;5005276;28;142527;-75
2021/12/02 04:35:27;;;;;;;18.30;11.38;;;-0.90;99.90;;;-0.66;100.00;96634.78;5022045;28;118472;-75
2021/12/02 04:37:56;;;;;;;17.63;10.90;;;-0.80;99.90;;;-0.62;100.00;96625.88;5004327;28;119991;-76
2021/12/02 04:40:25;;;;;;;19.40;10.80;;;-0.80;99.90;;;-0.65;100.00;96621.16;5003771;28;130049;-75
2021/12/02 04:42:54;;;;;;;19.98;10.45;;;-0.70;99.90;;;-0.73;100.00;96625.38;5003112;28;130579;-77
2021/12/02 04:45:24;;;;;;;18.02;10.63;;;-0.80;99.90;;;-0.55;100.00;96614.78;5003051;28;122044;-75
2021/12/02 04:47:52;;;;;;;18.25;10.50;;;-0.70;99.90;;;-0.65;100.00;96615.84;5003585;28;121495;-75
2021/12/02 04:50:21;;;;;;;20.88;10.93;;;-0.60;99.90;;;-0.58;100.00;96612.72;5014420;28;130376;-75
2021/12/02 04:52:52;;;;;;;19.05;11.25;;;-0.60;99.90;;;-0.55;100.00;96602.25;5005519;28;131192;-75
2021/12/02 04:55:22;;;;;;;19.02;11.15;;;-0.60;99.90;;;-0.44;100.00;96608.06;5004858;28;119822;-75
2021/12/02 04:57:51;;;;;;;19.35;10.88;;;-0.50;99.90;;;-0.47;100.00;96599.91;5000097;28;118799;-75
2021/12/02 05:00:19;;;;;;;20.80;11.73;;;-0.40;99.90;;;-0.30;100.00;96594.59;5002697;28;130124;-75
2021/12/02 05:02:50;;;;;;;23.13;11.15;;;-0.40;99.90;;;-0.29;100.00;96590.06;4997401;28;129983;-75
2021/12/02 05:05:18;;;;;;;19.77;11.65;;;-0.40;99.90;;;-0.22;100.00;96574.38;5013208;28;119762;-76
2021/12/02 05:07:48;;;;;;;19.90;12.00;;;-0.40;99.90;;;-0.05;100.00;96571.75;5013434;28;119128;-77
2021/12/02 05:10:17;;;;;;;16.98;10.77;;;-0.30;99.90;;;0.08;100.00;96571.88;5000912;28;129102;-77
2021/12/02 05:12:46;;;;;;;18.98;10.45;;;-0.20;99.90;;;0.14;100.00;96575.97;5013591;28;129727;-76
2021/12/02 05:15:15;;;;;;;23.70;11.77;;;-0.20;99.90;;;-0.11;100.00;96577.53;5012437;28;119824;-76
2021/12/02 05:17:43;;;;;;;21.65;11.13;;;-0.10;99.90;;;0.05;100.00;96583.16;4996631;28;119572;-76
2021/12/02 05:20:14;;;;;;;17.85;9.50;;;-0.10;99.90;;;-0.14;100.00;96570.97;4986909;28;129089;-76
2021/12/02 05:22:43;;;;;;;17.10;10.25;;;-0.10;99.90;;;-0.07;100.00;96565.94;5018872;28;129625;-75
2021/12/02 05:25:12;;;;;;;16.25;9.68;;;0.00;99.90;;;0.11;100.00;96568.59;5010117;28;119840;-75
2021/12/02 05:27:41;;;;;;;16.45;10.27;;;0.10;99.90;;;0.10;100.00;96564.38;5005719;28;118939;-75
2021/12/02 05:30:11;;;;;;;19.85;11.50;;;0.10;99.90;;;0.25;100.00;96571.09;5012661;28;128821;-75
2021/12/02 05:32:40;;;;;;;21.02;11.38;;;0.20;99.90;;;0.10;100.00;96564.38;4989678;28;128896;-76
2021/12/02 05:35:10;;;;;;;21.25;11.65;;;0.20;99.90;;;0.18;100.00;96563.56;5014031;28;121726;-77
2021/12/02 05:37:40;;;;;;;17.85;11.02;;;0.10;99.90;;;0.24;100.00;96558.88;5011874;28;122268;-76
2021/12/02 05:40:10;;;;;;;17.35;11.10;;;0.10;99.90;;;0.25;100.00;96555.88;5004073;28;130312;-75
2021/12/02 05:42:39;;;;;;;20.33;11.93;;;0.20;99.90;;;0.23;100.00;96557.28;4988386;28;129116;-75
2021/12/02 05:45:09;;;;;;;17.27;10.18;;;0.20;99.90;;;0.23;100.00;96563.41;4993448;28;119579;-75
2021/12/02 05:47:38;;;;;;;20.55;10.98;;;0.20;99.90;;;0.19;100.00;96546.47;5004089;28;120458;-75
2021/12/02 05:50:08;;;;;;;19.17;10.88;;;0.20;99.90;;;0.35;100.00;96550.19;4995636;28;129950;-76
2021/12/02 05:52:37;;;;;;;19.17;10.60;;;0.20;99.90;;;0.26;100.00;96546.75;4984863;28;129694;-77
2021/12/02 05:55:08;;;;;;;19.33;10.95;;;0.30;99.90;;;0.26;100.00;96546.75;4982864;28;119488;-76
2021/12/02 05:57:37;;;;;;;22.52;11.48;;;0.30;99.90;;;0.29;100.00;96558.69;4968224;28;118424;-74
2021/12/02 06:00:08;;;;;;;19.45;11.77;;;0.30;99.90;;;0.29;100.00;96556.81;4970606;28;130461;-75
2021/12/02 06:02:42;;;;;;;18.60;10.68;;;0.30;99.90;;;0.33;100.00;96552.41;4985617;28;129145;-75
2021/12/02 06:05:16;;;;;;;20.33;10.55;;;0.30;99.90;;;0.45;100.00;96550.97;4989998;28;119765;-73
2021/12/02 06:07:45;;;;;;;22.98;13.25;;;0.30;99.90;;;0.32;100.00;96545.50;4972972;28;118505;-74
2021/12/02 06:10:15;;;;;;;21.17;12.07;;;0.40;99.90;;;0.40;100.00;96545.81;4961461;28;129916;-75
2021/12/02 06:12:45;;;;;;;19.48;10.98;;;0.40;99.90;;;0.44;100.00;96536.09;4967842;28;129279;-74
2021/12/02 06:15:14;;;;;;;18.20;11.18;;;0.30;99.90;;;0.69;100.00;96547.78;4992042;28;119104;-75
2021/12/02 06:17:43;;;;;;;20.38;11.82;;;0.50;99.90;;;0.47;100.00;96551.47;4986155;28;118798;-74
2021/12/02 06:20:18;;;;;;;16.38;10.57;;;0.50;99.90;;;0.50;100.00;96562.28;4983639;28;129187;-74
2021/12/02 06:22:48;;;;;;;22.00;11.23;;;0.40;99.90;;;0.56;100.00;96557.53;4978834;28;129449;-79
2021/12/02 06:28:04;;;;;;;20.23;11.40;;;0.60;99.90;;;0.55;100.00;96553.31;4986375;28;120683;-74
2021/12/02 06:30:35;;;;;;;18.73;11.20;;;0.50;99.90;;;0.55;100.00;96564.00;4986350;28;128826;-74
2021/12/02 06:33:04;;;;;;;22.60;11.63;;;0.60;99.90;;;0.49;100.00;96575.94;4967723;28;129948;-74
2021/12/02 06:35:33;;;;;;;19.45;11.48;;;0.60;99.90;;;0.58;100.00;96568.69;4985619;28;119683;-73
2021/12/02 06:38:02;;;;;;;22.35;10.68;;;0.60;99.90;;;0.66;100.00;96573.22;4984972;28;119907;-73
2021/12/02 06:40:34;;;;;;;18.58;10.93;;;0.70;99.90;;;0.79;100.00;96573.34;4983810;28;130048;-73
2021/12/02 06:43:03;;;;;;;18.67;11.35;;;0.70;99.90;;;0.93;100.00;96573.91;4985772;28;130119;-74
2021/12/02 06:45:32;;;;;;;23.42;12.00;;;0.80;99.90;;;1.00;100.00;96574.22;4984525;28;119721;-73
2021/12/02 06:48:00;;;;;;;15.73;10.48;;;0.80;99.90;;;0.88;100.00;96568.75;4977784;28;119251;-74
2021/12/02 06:50:31;;;;;;;19.77;10.95;;;0.90;99.90;;;0.99;100.00;96567.31;4986450;28;129935;-73
2021/12/02 06:53:00;;;;;;;17.15;11.27;;;0.90;99.90;;;1.00;100.00;96573.44;4983786;28;130057;-73
2021/12/02 06:55:31;;;;;;;21.33;11.30;;;0.90;99.90;;;1.08;100.00;96570.72;4998079;28;118867;-73
2021/12/02 06:58:01;;;;;;;23.15;11.70;;;0.90;99.90;;;1.24;100.00;96562.94;4984448;28;119261;-74
2021/12/02 07:00:29;;;;;;;18.20;11.27;;;1.00;99.90;;;1.24;100.00;96576.31;4978502;28;129095;-73
2021/12/02 07:02:58;;;;;;;19.95;11.18;;;1.00;99.90;;;1.38;100.00;96565.38;4993706;28;128822;-74
2021/12/02 07:05:27;;;;;;;18.77;11.68;;;1.00;99.90;;;1.29;100.00;96575.34;4986478;28;119940;-74
2021/12/02 07:07:56;;;;;;;16.95;10.25;;;1.10;99.90;;;1.51;100.00;96576.16;4985837;28;120599;-74
2021/12/02 07:10:26;;;;;;;17.77;11.15;;;1.20;99.90;;;1.29;100.00;96569.22;4984287;28;129899;-74
2021/12/02 07:12:57;;;;;;;17.65;11.10;;;1.10;99.90;;;1.36;100.00;96578.28;4996028;28;129316;-74
2021/12/02 07:15:29;;;;;;;19.52;10.95;;;1.20;99.90;;;1.61;100.00;96576.56;4982906;28;122048;-74
2021/12/02 07:17:59;;;;;;;19.60;11.32;;;1.30;99.90;;;1.76;100.00;96582.47;4984449;28;122036;-74
2021/12/02 07:20:30;;;;;;;16.95;10.70;;;1.40;99.90;;;1.58;100.00;96560.41;4984307;28;130651;-73
2021/12/02 07:22:59;;;;;;;18.05;10.75;;;1.40;99.90;;;1.65;100.00;96571.34;5001904;28;128682;-74
2021/12/02 07:25:28;;;;;;;19.35;11.45;;;1.50;99.90;;;1.95;100.00;96574.00;4984349;28;119652;-74
2021/12/02 07:27:58;;;;;;;23.35;12.80;;;1.60;99.90;;;2.21;100.00;96584.47;4980483;28;118337;-75
2021/12/02 07:30:27;;;;;;;22.75;12.68;;;1.70;99.90;;;2.30;100.00;96574.47;4983451;28;130017;-74
2021/12/02 07:32:59;;;;;;;23.75;12.82;;;1.80;99.90;;;2.12;100.00;96573.88;4984406;28;129640;-74
2021/12/02 07:35:28;;;;;;;21.83;13.13;;;1.80;99.90;;;2.07;100.00;96576.75;4984005;28;119714;-74
2021/12/02 07:37:59;;;;;;;24.23;14.35;;;1.80;99.90;;;2.21;100.00;96578.34;4987816;28;118962;-74
2021/12/02 07:40:33;;;;;;;23.20;13.93;;;2.00;99.90;;;2.13;100.00;96583.44;4973843;28;130036;-74
2021/12/02 07:43:05;;;;;;;24.95;14.00;;;2.00;99.90;;;2.28;100.00;96583.97;4983675;28;130118;-72
2021/12/02 07:45:36;;;;;;;22.15;15.18;;;1.90;99.90;;;2.32;100.00;96590.22;4983902;28;119677;-73
2021/12/02 07:48:05;;;;;;;26.08;16.08;;;2.00;99.90;;;2.36;100.00;96604.50;4984051;28;119625;-72
2021/12/02 07:50:37;;;;;;;28.55;16.13;;;2.00;99.90;;;2.34;100.00;96598.72;5002011;28;129718;-73
2021/12/02 07:53:08;;;;;;;28.35;16.55;;;2.10;99.90;;;2.24;100.00;96591.06;4981251;28;129008;-74
2021/12/02 07:55:40;;;;;;;29.83;17.67;;;2.10;99.90;;;2.36;100.00;96604.50;5005151;28;118543;-75
2021/12/02 07:58:11;;;;;;;27.77;17.33;;;2.20;99.90;;;2.25;100.00;96603.34;5008136;28;119975;-73
2021/12/02 08:00:41;;;;;;;27.42;17.30;;;2.10;99.90;;;2.35;100.00;96597.59;4997352;28;129887;-74
2021/12/02 08:03:13;;;;;;;26.95;17.70;;;2.20;99.90;;;2.23;100.00;96594.84;5005636;28;128236;-74
2021/12/02 08:05:42;;;;;;;30.17;18.25;;;2.20;99.90;;;2.43;100.00;96610.13;5017284;28;122158;-74
2021/12/02 08:08:12;;;;;;;33.80;19.38;;;2.30;99.90;;;2.31;100.00;96602.03;4996330;28;120964;-74
2021/12/02 08:10:41;;;;;;;30.45;18.85;;;2.30;99.90;;;2.44;100.00;96600.97;5020730;28;129865;-71
2021/12/02 08:13:13;;;;;;;33.13;20.15;;;2.20;99.90;;;2.46;100.00;96604.13;5015438;28;130053;-72
2021/12/02 08:15:42;;;;;;;29.65;19.38;;;2.40;99.90;;;2.80;100.00;96607.56;5016646;28;119425;-72
2021/12/02 08:18:12;;;;;;;29.08;19.33;;;2.50;99.90;;;3.03;100.00;96609.84;5020967;28;119587;-71
2021/12/02 08:20:41;;;;;;;29.05;18.40;;;2.60;99.90;;;2.94;100.00;96611.84;5010282;28;129802;-72
2021/12/02 08:23:09;;;;;;;29.35;18.48;;;2.70;99.90;;;3.03;100.00;96609.84;5010573;28;130185;-71
2021/12/02 08:25:38;;;;;;;27.85;17.83;;;2.80;99.90;;;3.09;100.00;96618.47;5012596;28;120154;-72
2021/12/02 08:28:07;;;;;;;28.02;17.63;;;2.80;99.90;;;3.34;100.00;96620.03;4994921;28;119529;-72
2021/12/02 08:30:38;;;;;;;27.30;18.10;;;2.90;99.90;;;3.46;100.00;96632.69;5017413;28;130370;-72
2021/12/02 08:33:08;;;;;;;30.23;18.88;;;3.10;99.90;;;3.67;100.00;96631.78;5002857;28;129861;-72
2021/12/02 08:35:37;;;;;;;26.73;18.05;;;3.10;99.90;;;3.75;100.00;96630.88;5013581;28;119617;-72
2021/12/02 08:38:09;;;;;;;25.77;16.73;;;3.20;99.90;;;3.93;100.00;96629.53;5014030;28;119305;-72
2021/12/02 08:40:40;;;;;;;28.25;17.50;;;3.20;99.90;;;3.97;100.00;96640.34;5010035;28;129937;-73
2021/12/02 08:43:13;;;;;;;25.50;16.73;;;3.40;99.90;;;3.98;100.00;96641.16;5008717;28;129731;-72
2021/12/02 08:45:44;;;;;;;25.63;17.77;;;3.40;99.90;;;3.92;100.00;96638.69;4993307;28;119239;-73
2021/12/02 08:48:13;;;;;;;26.83;17.23;;;3.40;99.90;;;3.93;100.00;96645.63;5003308;28;119293;-73
2021/12/02 08:50:44;;;;;;;25.60;17.95;;;3.40;99.90;;;3.87;100.00;96646.97;4988998;28;129547;-73
2021/12/02 08:53:13;;;;;;;26.90;17.58;;;3.50;99.90;;;4.01;100.00;96648.53;4979454;28;129784;-74
2021/12/02 08:55:44;;;;;;;29.95;17.55;;;3.40;99.90;;;4.01;100.00;96635.13;4979842;28;121952;-73
2021/12/02 08:58:12;;;;;;;26.55;17.50;;;3.50;99.90;;;4.05;100.00;96638.66;4984037;28;122068;-71
2021/12/02 09:00:43;;;;;;;24.55;17.70;;;3.50;99.90;;;3.90;100.00;96646.28;4981003;28;130563;-73
2021/12/02 09:03:15;;;;;;;30.10;18.42;;;3.40;99.90;;;3.83;100.00;96640.69;4994414;28;129818;-70
2021/12/02 09:05:45;;;;;;;23.65;15.18;;;3.40;99.90;;;3.83;100.00;96634.56;4962041;28;118536;-70
2021/12/02 09:08:15;;;;;;;24.10;16.60;;;3.50;99.90;;;4.18;100.00;96645.59;4981218;28;119451;-71
2021/12/02 09:10:44;;;;;;;27.60;18.55;;;3.60;99.90;;;4.17;100.00;96640.56;4974747;28;130649;-72
2021/12/02 09:13:13;;;;;;;23.35;16.67;;;3.60;99.90;;;4.36;100.00;96638.03;4981672;28;130331;-72
2021/12/02 09:15:43;;;;;;;24.23;17.05;;;3.80;99.90;;;4.61;100.00;96637.94;4981718;28;119544;-73
2021/12/02 09:18:11;;;;;;;27.58;17.92;;;3.90;99.90;;;4.28;100.00;96645.09;4974935;28;118497;-72
2021/12/02 09:20:41;;;;;;;26.65;18.15;;;3.70;99.90;;;4.25;100.00;96656.50;4988503;28;129830;-73
2021/12/02 09:23:10;;;;;;;24.23;17.20;;;3.70;99.90;;;4.32;100.00;96634.47;4981439;28;130559;-74
2021/12/02 09:25:39;;;;;;;25.80;17.58;;;3.70;99.90;;;4.34;100.00;96642.19;4980774;28;119549;-73
2021/12/02 09:28:10;;;;;;;22.60;17.10;;;3.70;99.90;;;4.42;100.00;96646.63;4982009;28;120037;-73
2021/12/02 09:30:39;;;;;;;24.13;17.05;;;3.80;99.90;;;4.67;100.00;96640.06;4981166;28;130510;-73
2021/12/02 09:33:10;;;;;;;21.50;16.38;;;3.90;99.90;;;4.43;100.00;96629.41;4976420;28;129915;-72
2021/12/02 09:35:39;;;;;;;23.20;16.77;;;3.90;99.90;;;4.38;100.00;96626.94;4994327;28;119721;-71
2021/12/02 09:38:08;;;;;;;26.05;17.55;;;3.80;99.90;;;4.11;100.00;96635.44;4985566;28;119675;-72
2021/12/02 09:40:37;;;;;;;23.33;17.25;;;3.70;99.90;;;4.11;100.00;96629.25;4982755;28;129723;-72
2021/12/02 09:43:05;;;;;;;22.17;15.65;;;3.70;99.90;;;4.14;100.00;96628.59;4980862;28;129921;-72
2021/12/02 09:45:34;;;;;;;21.80;16.30;;;3.70;99.90;;;4.29;100.00;96629.78;4980997;28;122517;-72
2021/12/02 09:48:03;;;;;;;25.38;17.25;;;3.80;99.90;;;4.29;100.00;96630.56;4985843;28;121805;-73
2021/12/02 09:50:36;;;;;;;24.45;17.13;;;3.70;99.90;;;4.27;100.00;96626.66;4984650;28;129873;-72
2021/12/02 09:53:09;;;;;;;20.52;15.65;;;3.70;99.90;;;4.43;100.00;96634.78;4982531;28;130289;-73
2021/12/02 09:55:47;;;;;;;24.95;15.75;;;3.70;99.90;;;4.44;100.00;96628.28;4983293;28;118123;-72
2021/12/02 09:58:21;;;;;;;20.15;15.27;;;3.80;99.90;;;4.59;100.00;96638.28;4981575;28;119814;-73
2021/12/02 10:00:53;;;;;;;24.48;17.05;;;3.80;99.90;;;4.62;100.00;96639.53;4983421;28;128926;-73
2021/12/02 10:03:28;;;;;;;23.38;15.23;;;3.90;99.90;;;4.63;100.00;96633.03;4980746;28;129895;-73
2021/12/02 10:06:06;;;;;;;20.13;14.77;;;3.90;99.90;;;4.72;100.00;96643.63;4970690;28;118303;-72
2021/12/02 10:08:45;;;;;;;21.92;14.70;;;4.00;99.90;;;4.65;100.00;96636.94;4986793;28;116148;-72
2021/12/02 10:11:26;;;;;;;18.92;14.55;;;3.90;99.90;;;4.44;100.00;96641.69;4961798;28;129243;-72
2021/12/02 10:14:00;;;;;;;19.58;14.18;;;3.90;99.90;;;4.41;100.00;96648.56;4963360;28;129002;-72
2021/12/02 10:16:32;;;;;;;17.77;14.38;;;3.80;99.90;;;4.44;100.00;96636.31;4959103;28;118865;-72
2021/12/02 10:19:07;;;;;;;21.77;14.55;;;3.90;99.90;;;4.39;100.00;96655.38;4986574;28;120359;-77
2021/12/02 10:21:42;;;;;;;20.48;14.48;;;3.80;99.90;;;4.41;100.00;96653.13;4983521;28;129922;-73
2021/12/02 10:24:14;;;;;;;22.30;15.30;;;3.90;99.90;;;4.32;100.00;96654.03;4984855;28;129763;-73